createdAt,value
2023-01-12T00:00:55.013Z,94.00
2023-01-12T00:03:41.487Z,94.10
2023-01-12T00:06:26.866Z,94.60
2023-01-12T00:09:12.871Z,94.50
2023-01-12T00:11:58.666Z,94.80
2023-01-12T00:14:44.545Z,95.00
2023-01-12T00:17:33.359Z,95.10
2023-01-12T00:20:18.700Z,95.70
2023-01-12T00:23:04.394Z,96.10
2023-01-12T00:25:55.540Z,96.40
2023-01-12T00:28:43.400Z,96.80
2023-01-12T00:31:29.440Z,96.10
2023-01-12T00:34:17.626Z,96.00
2023-01-12T00:37:06.427Z,96.00
2023-01-12T00:40:01.861Z,96.20
2023-01-12T00:43:06.975Z,96.10
2023-01-12T00:45:52.990Z,96.10
2023-01-12T00:48:38.556Z,96.30
2023-01-12T00:51:24.017Z,96.20
2023-01-12T00:54:10.129Z,96.40
2023-01-12T00:56:56.350Z,96.50
2023-01-12T00:59:44.670Z,96.80
2023-01-12T01:02:30.244Z,97.00
2023-01-12T01:05:17.767Z,97.40
2023-01-12T01:08:04.448Z,97.30
2023-01-12T01:10:50.039Z,97.40
2023-01-12T01:13:37.249Z,97.30
2023-01-12T01:16:30.767Z,97.30
2023-01-12T01:19:16.763Z,97.40
2023-01-12T01:22:02.348Z,97.20
2023-01-12T01:24:48.196Z,97.20
2023-01-12T01:27:33.945Z,96.80
2023-01-12T01:30:20.185Z,96.80
2023-01-12T01:33:08.376Z,97.10
2023-01-12T01:35:56.720Z,96.70
2023-01-12T01:38:44.980Z,96.80
2023-01-12T01:41:33.618Z,96.40
2023-01-12T01:44:31.507Z,96.00
2023-01-12T01:47:27.098Z,95.70
2023-01-12T01:50:26.438Z,95.10
2023-01-12T01:53:16.934Z,94.60
2023-01-12T01:56:11.545Z,93.90
2023-01-12T01:59:05.165Z,93.00
2023-01-12T02:01:51.876Z,92.10
2023-01-12T02:04:38.388Z,91.30
2023-01-12T02:07:26.338Z,90.40
2023-01-12T02:10:12.007Z,90.10
2023-01-12T02:13:16.128Z,89.00
2023-01-12T02:16:23.127Z,87.40
2023-01-12T02:19:20.749Z,87.00
2023-01-12T02:22:34.025Z,85.90
2023-01-12T02:25:22.533Z,85.90
2023-01-12T02:28:48.249Z,85.50
2023-01-12T02:31:43.040Z,85.00
2023-01-12T02:35:19.860Z,84.40
2023-01-12T02:38:26.367Z,84.00
2023-01-12T02:41:58.807Z,84.50
2023-01-12T02:44:59.678Z,84.30
2023-01-12T02:47:57.121Z,84.00
2023-01-12T02:50:48.202Z,84.00
2023-01-12T02:53:50.813Z,84.00
2023-01-12T02:56:48.687Z,84.60
2023-01-12T02:59:37.239Z,84.00
2023-01-12T03:02:27.708Z,84.30
2023-01-12T03:05:16.321Z,84.60
2023-01-12T03:08:04.286Z,85.40
2023-01-12T03:10:58.738Z,84.70
2023-01-12T03:13:55.518Z,84.70
2023-01-12T03:16:42.050Z,84.00
2023-01-12T03:19:36.595Z,84.00
2023-01-12T03:22:22.918Z,84.10
2023-01-12T03:25:14.877Z,84.30
2023-01-12T03:28:05.253Z,83.90
2023-01-12T03:31:03.542Z,83.60
2023-01-12T03:33:48.944Z,83.30
2023-01-12T03:36:55.629Z,82.80
2023-01-12T03:40:08.400Z,82.60
2023-01-12T03:43:18.313Z,82.60
2023-01-12T03:46:12.881Z,82.60
2023-01-12T03:49:06.451Z,82.10
2023-01-12T03:51:55.796Z,81.40
2023-01-12T03:54:43.451Z,81.50
2023-01-12T03:57:31.647Z,81.00
2023-01-12T04:00:19.477Z,80.90
2023-01-12T04:03:14.280Z,80.90
2023-01-12T04:06:00.125Z,81.00
2023-01-12T04:08:45.666Z,81.00
2023-01-12T04:11:49.858Z,80.80
2023-01-12T04:14:38.613Z,80.80
2023-01-12T04:17:25.370Z,80.30
2023-01-12T04:20:13.218Z,79.60
2023-01-12T04:22:59.406Z,79.80
2023-01-12T04:25:47.397Z,80.00
2023-01-12T04:28:32.976Z,79.50
2023-01-12T04:31:21.409Z,79.60
2023-01-12T04:34:07.874Z,79.50
2023-01-12T04:36:55.287Z,79.60
2023-01-12T04:39:41.099Z,79.20
2023-01-12T04:42:45.741Z,79.40
2023-01-12T04:45:33.568Z,79.20
2023-01-12T04:48:19.770Z,79.10
2023-01-12T04:51:08.434Z,78.50
2023-01-12T04:53:53.943Z,78.90
2023-01-12T04:56:41.805Z,78.80
2023-01-12T04:59:28.597Z,78.40
2023-01-12T05:02:14.282Z,78.20
2023-01-12T05:04:59.986Z,78.00
2023-01-12T05:08:04.131Z,77.80
2023-01-12T05:10:57.019Z,77.50
2023-01-12T05:13:43.175Z,77.50
2023-01-12T05:16:31.671Z,76.90
2023-01-12T05:19:17.400Z,76.80
2023-01-12T05:22:02.827Z,76.40
2023-01-12T05:24:48.576Z,76.30
2023-01-12T05:27:33.888Z,76.40
2023-01-12T05:30:21.832Z,76.30
2023-01-12T05:33:07.648Z,76.40
2023-01-12T05:35:53.327Z,76.10
2023-01-12T05:38:41.926Z,75.60
2023-01-12T05:41:27.246Z,75.70
2023-01-12T05:44:14.939Z,75.60
2023-01-12T05:47:00.690Z,75.50
2023-01-12T05:49:45.741Z,75.20
2023-01-12T05:52:34.256Z,75.00
2023-01-12T05:55:24.283Z,75.00
2023-01-12T05:58:10.537Z,74.90
2023-01-12T06:00:58.218Z,75.10
2023-01-12T06:03:43.729Z,74.60
2023-01-12T06:06:32.890Z,74.90
2023-01-12T06:09:21.259Z,74.60
2023-01-12T06:12:29.314Z,74.30
2023-01-12T06:15:14.980Z,74.30
2023-01-12T06:18:01.008Z,74.40
2023-01-12T06:20:46.285Z,74.40
2023-01-12T06:23:34.963Z,74.80
2023-01-12T06:26:24.235Z,74.30
2023-01-12T06:29:09.523Z,74.60
2023-01-12T06:31:59.797Z,74.50
2023-01-12T06:34:45.256Z,74.50
2023-01-12T06:37:31.239Z,74.60
2023-01-12T06:40:19.088Z,74.60
2023-01-12T06:43:04.980Z,74.40
2023-01-12T06:45:54.547Z,74.50
2023-01-12T06:48:42.619Z,74.50
2023-01-12T06:51:27.880Z,74.90
2023-01-12T06:54:13.551Z,74.60
2023-01-12T06:56:58.800Z,74.40
2023-01-12T06:59:47.398Z,74.60
2023-01-12T07:02:35.989Z,74.50
2023-01-12T07:05:22.498Z,74.70
2023-01-12T07:08:07.876Z,74.60
2023-01-12T07:10:53.852Z,75.00
2023-01-12T07:13:41.894Z,75.10
2023-01-12T07:16:30.386Z,75.30
2023-01-12T07:19:21.095Z,75.70
2023-01-12T07:22:06.592Z,75.60
2023-01-12T07:24:52.317Z,75.20
2023-01-12T07:27:37.948Z,75.20
2023-01-12T07:30:25.511Z,75.20
2023-01-12T07:33:13.824Z,75.00
2023-01-12T07:36:01.188Z,75.10
2023-01-12T07:38:47.290Z,74.90
2023-01-12T07:42:03.964Z,74.80
2023-01-12T07:44:49.309Z,74.70
2023-01-12T07:47:35.275Z,74.50
2023-01-12T07:50:27.290Z,74.30
2023-01-12T07:53:15.031Z,73.90
2023-01-12T07:56:00.535Z,73.80
2023-01-12T07:58:50.226Z,73.60
2023-01-12T08:01:38.587Z,73.40
2023-01-12T08:04:24.465Z,73.60
2023-01-12T08:07:15.261Z,73.50
2023-01-12T08:10:00.950Z,73.40
2023-01-12T08:12:46.803Z,73.20
2023-01-12T08:15:37.379Z,73.10
2023-01-12T08:18:31.160Z,73.30
2023-01-12T08:21:21.649Z,73.00
2023-01-12T08:24:09.545Z,72.90
2023-01-12T08:26:58.681Z,73.00
2023-01-12T08:29:48.712Z,73.00
2023-01-12T08:32:35.713Z,72.60
2023-01-12T08:35:23.216Z,72.20
2023-01-12T08:38:10.391Z,72.20
2023-01-12T08:41:14.324Z,72.30
2023-01-12T08:44:02.012Z,71.90
2023-01-12T08:46:55.468Z,72.00
2023-01-12T08:49:41.082Z,72.00
2023-01-12T08:52:47.238Z,71.70
2023-01-12T08:55:33.241Z,70.90
2023-01-12T08:58:18.692Z,71.00
2023-01-12T09:01:16.673Z,70.70
2023-01-12T09:04:05.168Z,70.60
2023-01-12T09:06:50.479Z,70.30
2023-01-12T09:09:36.289Z,70.30
2023-01-12T09:12:24.377Z,69.90
2023-01-12T09:15:10.404Z,69.60
2023-01-12T09:17:56.073Z,69.10
2023-01-12T09:20:41.291Z,69.20
2023-01-12T09:23:29.075Z,69.10
2023-01-12T09:26:19.854Z,68.30
2023-01-12T09:29:05.921Z,67.80
2023-01-12T09:31:52.260Z,68.00
2023-01-12T09:34:40.894Z,67.90
2023-01-12T09:37:27.953Z,67.90
2023-01-12T09:40:18.024Z,66.80
2023-01-12T09:43:22.420Z,67.10
2023-01-12T09:46:37.348Z,65.80
2023-01-12T09:49:32.006Z,65.20
2023-01-12T09:52:29.589Z,65.10
2023-01-12T09:55:23.260Z,64.70
2023-01-12T09:58:28.126Z,64.70
2023-01-12T10:01:28.749Z,64.20
2023-01-12T10:04:15.212Z,64.00
2023-01-12T10:07:01.937Z,62.50
2023-01-12T10:09:50.934Z,62.90
2023-01-12T10:12:45.020Z,62.90
2023-01-12T10:15:43.816Z,62.00
2023-01-12T10:18:42.615Z,61.50
2023-01-12T10:21:30.567Z,61.30
2023-01-12T10:24:21.442Z,61.60
2023-01-12T10:27:16.477Z,61.40
2023-01-12T10:30:02.290Z,61.20
2023-01-12T10:32:47.843Z,61.60
2023-01-12T10:35:33.397Z,60.80
2023-01-12T10:38:38.279Z,61.20
2023-01-12T10:41:27.692Z,60.30
2023-01-12T10:44:16.519Z,60.40
2023-01-12T10:47:09.753Z,60.70
2023-01-12T10:50:25.587Z,60.80
2023-01-12T10:53:16.462Z,61.40
2023-01-12T10:56:13.143Z,62.50
2023-01-12T10:59:16.804Z,63.90
2023-01-12T11:02:05.794Z,62.80
2023-01-12T11:04:53.587Z,63.10
2023-01-12T11:07:51.009Z,62.80
2023-01-12T11:10:37.391Z,64.30
2023-01-12T11:13:36.481Z,64.90
2023-01-12T11:16:33.933Z,65.80
2023-01-12T11:19:26.500Z,66.30
2023-01-12T11:22:22.995Z,67.40
2023-01-12T11:25:15.000Z,67.40
2023-01-12T11:28:23.965Z,68.90
2023-01-12T11:31:28.622Z,70.20
2023-01-12T11:34:22.689Z,71.30
2023-01-12T11:37:14.248Z,71.70
2023-01-12T11:40:20.803Z,72.90
2023-01-12T11:43:51.696Z,73.20
2023-01-12T11:46:52.012Z,74.60
2023-01-12T11:49:48.696Z,73.20
2023-01-12T11:52:37.038Z,73.50
2023-01-12T11:56:01.116Z,73.30
2023-01-12T11:59:17.357Z,71.50
2023-01-12T12:02:28.968Z,70.70
2023-01-12T12:05:41.229Z,70.60
2023-01-12T12:08:56.040Z,70.20
2023-01-12T12:12:07.871Z,70.10
2023-01-12T12:15:33.254Z,69.80
2023-01-12T12:18:18.953Z,69.20
2023-01-12T12:21:32.473Z,68.40
2023-01-12T12:24:33.387Z,68.50
2023-01-12T12:27:58.094Z,68.00
2023-01-12T12:30:56.571Z,67.50
2023-01-12T12:33:54.184Z,67.40
2023-01-12T12:36:53.634Z,67.40
2023-01-12T12:39:51.853Z,66.40
2023-01-12T12:43:28.401Z,66.80
2023-01-12T12:46:34.396Z,66.50
2023-01-12T12:49:26.971Z,66.90
2023-01-12T12:52:14.157Z,66.00
2023-01-12T12:54:59.366Z,66.10
2023-01-12T12:58:20.629Z,65.70
2023-01-12T13:01:21.816Z,65.30
2023-01-12T13:04:11.148Z,65.40
2023-01-12T13:07:05.605Z,65.50
2023-01-12T13:09:53.453Z,65.20
2023-01-12T13:12:43.512Z,66.00
2023-01-12T13:15:36.110Z,65.30
2023-01-12T13:18:42.302Z,65.20
2023-01-12T13:21:42.703Z,65.00
2023-01-12T13:24:44.727Z,65.40
2023-01-12T13:28:01.507Z,65.20
2023-01-12T13:30:55.600Z,65.30
2023-01-12T13:33:42.931Z,65.70
2023-01-12T13:36:31.623Z,65.80
2023-01-12T13:39:17.533Z,65.70
2023-01-12T13:42:25.613Z,65.50
2023-01-12T13:45:17.401Z,65.70
2023-01-12T13:48:06.196Z,65.70
2023-01-12T13:51:03.177Z,65.90
2023-01-12T13:54:11.937Z,65.80
2023-01-12T13:57:03.516Z,65.70
2023-01-12T14:00:10.916Z,65.80
2023-01-12T14:02:57.611Z,66.00
2023-01-12T14:05:54.597Z,66.00
2023-01-12T14:08:50.668Z,66.00
2023-01-12T14:12:05.913Z,66.20
2023-01-12T14:15:47.691Z,66.00
2023-01-12T14:18:48.653Z,66.20
2023-01-12T14:21:37.460Z,66.40
2023-01-12T14:24:26.446Z,66.50
2023-01-12T14:27:27.487Z,66.20
2023-01-12T14:30:14.214Z,66.20
2023-01-12T14:32:59.793Z,66.60
2023-01-12T14:35:47.047Z,66.70
2023-01-12T14:38:39.447Z,66.50
2023-01-12T14:41:48.134Z,66.80
2023-01-12T14:44:55.565Z,66.40
2023-01-12T14:47:43.024Z,66.50
2023-01-12T14:50:29.182Z,66.80
2023-01-12T14:53:39.594Z,66.70
2023-01-12T14:56:35.166Z,66.70
2023-01-12T14:59:24.674Z,66.60
2023-01-12T15:02:13.349Z,66.50
2023-01-12T15:05:01.451Z,66.60
2023-01-12T15:07:56.833Z,66.50
2023-01-12T15:10:44.233Z,67.10
2023-01-12T15:13:34.833Z,66.80
2023-01-12T15:16:38.707Z,66.70
2023-01-12T15:19:42.998Z,66.80
2023-01-12T15:22:47.588Z,66.90
2023-01-12T15:25:35.948Z,67.30
2023-01-12T15:28:21.551Z,67.30
2023-01-12T15:31:20.224Z,67.40
2023-01-12T15:34:06.928Z,67.40
2023-01-12T15:36:52.350Z,67.30
2023-01-12T15:39:37.755Z,67.40
2023-01-12T15:42:26.403Z,67.50
2023-01-12T15:45:32.485Z,67.30
2023-01-12T15:48:20.930Z,67.30
2023-01-12T15:51:10.023Z,67.50
2023-01-12T15:53:57.789Z,68.20
2023-01-12T15:56:43.089Z,67.60
2023-01-12T15:59:30.908Z,67.40
2023-01-12T16:02:25.067Z,67.60
2023-01-12T16:05:13.511Z,67.60
2023-01-12T16:07:59.033Z,67.50
2023-01-12T16:11:04.406Z,67.60
2023-01-12T16:13:51.968Z,67.60
2023-01-12T16:16:38.055Z,67.60
2023-01-12T16:19:27.628Z,67.70
2023-01-12T16:22:26.618Z,67.60
2023-01-12T16:25:14.410Z,67.70
2023-01-12T16:28:01.009Z,68.40
2023-01-12T16:30:47.688Z,67.70
2023-01-12T16:33:33.299Z,68.00
2023-01-12T16:36:21.450Z,68.10
2023-01-12T16:39:06.825Z,68.00
2023-01-12T16:42:03.196Z,68.00
2023-01-12T16:44:50.143Z,67.90
2023-01-12T16:47:35.873Z,68.20
2023-01-12T16:50:21.581Z,68.10
2023-01-12T16:53:13.099Z,68.20
2023-01-12T16:56:02.035Z,68.20
2023-01-12T16:58:48.516Z,68.30
2023-01-12T17:01:35.556Z,68.40
2023-01-12T17:04:25.755Z,68.40
2023-01-12T17:07:11.901Z,68.50
2023-01-12T17:09:57.782Z,68.60
2023-01-12T17:12:52.990Z,68.60
2023-01-12T17:15:46.551Z,68.70
2023-01-12T17:18:32.779Z,68.70
2023-01-12T17:21:19.906Z,69.30
2023-01-12T17:24:08.778Z,69.20
2023-01-12T17:26:55.245Z,69.20
2023-01-12T17:29:41.553Z,69.20
2023-01-12T17:32:27.015Z,69.30
2023-01-12T17:35:14.669Z,69.30
2023-01-12T17:38:00.420Z,69.60
2023-01-12T17:40:46.130Z,69.30
2023-01-12T17:43:34.383Z,69.30
2023-01-12T17:46:20.432Z,69.40
2023-01-12T17:49:08.517Z,69.40
2023-01-12T17:51:58.800Z,69.20
2023-01-12T17:54:44.638Z,69.20
2023-01-12T17:57:31.754Z,69.30
2023-01-12T18:00:18.076Z,69.20
2023-01-12T18:03:06.159Z,69.00
2023-01-12T18:06:02.856Z,69.20
2023-01-12T18:08:51.689Z,69.20
2023-01-12T18:11:41.144Z,69.30
2023-01-12T18:14:27.918Z,69.50
2023-01-12T18:17:14.109Z,69.50
2023-01-12T18:20:00.502Z,69.50
2023-01-12T18:22:46.466Z,69.30
2023-01-12T18:25:35.379Z,69.40
2023-01-12T18:28:20.791Z,69.40
2023-01-12T18:31:10.403Z,69.30
2023-01-12T18:34:02.041Z,69.40
2023-01-12T18:36:50.425Z,69.20
2023-01-12T18:39:36.332Z,69.10
2023-01-12T18:42:40.671Z,69.00
2023-01-12T18:45:28.652Z,68.60
2023-01-12T18:48:24.247Z,68.80
2023-01-12T18:51:31.639Z,68.70
2023-01-12T18:54:19.630Z,68.70
2023-01-12T18:57:05.382Z,68.30
2023-01-12T19:00:15.543Z,68.20
2023-01-12T19:03:01.230Z,68.30
2023-01-12T19:05:58.779Z,68.10
2023-01-12T19:09:03.245Z,68.30
2023-01-12T19:11:49.381Z,68.20
2023-01-12T19:14:53.619Z,68.10
2023-01-12T19:17:41.881Z,68.20
2023-01-12T19:20:29.973Z,68.10
2023-01-12T19:23:34.460Z,68.10
2023-01-12T19:26:41.407Z,68.10
2023-01-12T19:29:30.740Z,68.10
2023-01-12T19:32:17.128Z,68.10
2023-01-12T19:35:10.981Z,68.10
2023-01-12T19:37:57.741Z,68.20
2023-01-12T19:40:46.054Z,68.10
2023-01-12T19:43:34.039Z,67.90
2023-01-12T19:46:19.481Z,68.10
2023-01-12T19:49:05.324Z,68.10
2023-01-12T19:51:51.020Z,68.10
2023-01-12T19:54:36.925Z,68.60
2023-01-12T19:57:24.732Z,69.90
2023-01-12T20:00:15.198Z,70.40
2023-01-12T20:03:01.229Z,71.50
2023-01-12T20:05:48.163Z,72.60
2023-01-12T20:08:33.822Z,73.30
2023-01-12T20:11:19.905Z,76.00
2023-01-12T20:14:05.819Z,76.50
2023-01-12T20:16:53.549Z,77.00
2023-01-12T20:19:39.465Z,78.20
2023-01-12T20:22:27.023Z,78.70
2023-01-12T20:25:15.394Z,84.60
2023-01-12T20:28:04.108Z,90.20
2023-01-12T20:30:52.321Z,88.30
2023-01-12T20:33:40.995Z,82.60
2023-01-12T20:36:26.632Z,83.30
2023-01-12T20:39:12.926Z,83.70
2023-01-12T20:41:58.628Z,84.90
2023-01-12T20:44:44.251Z,85.50
2023-01-12T20:47:34.081Z,86.70
2023-01-12T20:50:19.905Z,86.90
2023-01-12T20:53:07.475Z,86.50
2023-01-12T20:55:53.860Z,87.00
2023-01-12T20:58:39.628Z,87.10
2023-01-12T21:01:28.265Z,87.50
2023-01-12T21:04:14.628Z,87.60
2023-01-12T21:07:01.089Z,87.90
2023-01-12T21:09:46.608Z,88.30
2023-01-12T21:12:35.949Z,88.30
2023-01-12T21:15:21.843Z,88.10
2023-01-12T21:18:11.186Z,88.20
2023-01-12T21:20:57.611Z,88.80
2023-01-12T21:23:43.644Z,89.40
2023-01-12T21:26:31.350Z,90.10
2023-01-12T21:29:17.591Z,90.20
2023-01-12T21:32:03.788Z,90.20
2023-01-12T21:34:51.584Z,90.50
2023-01-12T21:37:37.528Z,90.40
2023-01-12T21:40:23.578Z,90.20
2023-01-12T21:43:09.501Z,90.20
2023-01-12T21:45:55.366Z,90.30
2023-01-12T21:48:40.934Z,90.10
2023-01-12T21:51:26.758Z,90.20
2023-01-12T21:54:12.139Z,90.30
2023-01-12T21:56:57.487Z,90.10
2023-01-12T21:59:43.474Z,90.20
2023-01-12T22:02:31.226Z,90.20
2023-01-12T22:05:21.654Z,90.20
2023-01-12T22:08:07.490Z,90.10
2023-01-12T22:10:53.356Z,90.40
2023-01-12T22:13:43.484Z,90.20
2023-01-12T22:16:31.723Z,90.40
2023-01-12T22:19:17.629Z,90.40
2023-01-12T22:22:03.314Z,90.50
2023-01-12T22:24:48.705Z,90.40
2023-01-12T22:27:35.939Z,90.50
2023-01-12T22:30:26.025Z,90.40
2023-01-12T22:33:12.444Z,90.30
2023-01-12T22:36:04.433Z,90.30
2023-01-12T22:38:50.357Z,90.30
2023-01-12T22:41:35.955Z,90.10
2023-01-12T22:44:24.646Z,90.10
2023-01-12T22:47:10.167Z,89.90
2023-01-12T22:49:55.825Z,89.90
2023-01-12T22:52:43.861Z,90.00
2023-01-12T22:55:32.404Z,90.20
2023-01-12T22:58:21.198Z,90.30
2023-01-12T23:01:09.710Z,90.20
2023-01-12T23:03:57.305Z,90.30
2023-01-12T23:06:42.761Z,90.20
2023-01-12T23:09:28.795Z,90.20
2023-01-12T23:12:14.586Z,90.30
2023-01-12T23:15:02.536Z,90.10
2023-01-12T23:17:48.393Z,90.30
2023-01-12T23:20:36.175Z,90.10
2023-01-12T23:23:22.163Z,90.30
2023-01-12T23:26:14.402Z,90.10
2023-01-12T23:29:03.030Z,90.40
2023-01-12T23:31:51.235Z,90.20
2023-01-12T23:34:37.639Z,90.80
2023-01-12T23:37:23.156Z,90.30
2023-01-12T23:40:09.623Z,90.10
2023-01-12T23:42:57.621Z,90.40
2023-01-12T23:45:44.048Z,90.00
2023-01-12T23:48:29.749Z,90.00
2023-01-12T23:51:15.731Z,90.00
2023-01-12T23:54:02.354Z,90.00
2023-01-12T23:56:53.019Z,90.00
2023-01-12T23:59:40.009Z,89.30
